createdAt,value
2019-03-30T00:02:03.361Z,91.53
2019-03-30T00:04:30.076Z,107.60
2019-03-30T00:06:56.675Z,99.03
2019-03-30T00:09:23.276Z,95.87
2019-03-30T00:11:49.923Z,89.97
2019-03-30T00:14:16.532Z,104.87
2019-03-30T00:16:43.135Z,100.23
2019-03-30T00:19:09.786Z,101.90
2019-03-30T00:21:36.392Z,100.80
2019-03-30T00:24:02.988Z,97.20
2019-03-30T00:26:29.652Z,112.73
2019-03-30T00:28:56.326Z,117.60
2019-03-30T00:31:22.938Z,107.10
2019-03-30T00:33:49.681Z,115.27
2019-03-30T00:36:16.283Z,120.60
2019-03-30T00:38:42.877Z,120.10
2019-03-30T00:41:09.526Z,106.53
2019-03-30T00:43:36.156Z,110.43
2019-03-30T00:46:02.812Z,110.43
2019-03-30T00:48:29.572Z,113.13
2019-03-30T00:50:56.204Z,107.53
2019-03-30T00:53:22.901Z,103.10
2019-03-30T00:55:49.614Z,112.63
2019-03-30T00:58:16.315Z,113.53
2019-03-30T01:00:43.041Z,112.90
2019-03-30T01:03:09.800Z,108.80
2019-03-30T01:05:36.399Z,110.37
2019-03-30T01:08:03.028Z,116.90
2019-03-30T01:10:29.769Z,114.20
2019-03-30T01:12:56.452Z,116.53
2019-03-30T01:15:23.197Z,105.47
2019-03-30T01:17:49.940Z,116.67
2019-03-30T01:20:16.563Z,113.33
2019-03-30T01:22:43.265Z,96.10
2019-03-30T01:25:10.031Z,113.77
2019-03-30T01:27:36.720Z,113.70
2019-03-30T01:30:03.470Z,106.70
2019-03-30T01:32:30.235Z,117.40
2019-03-30T01:34:56.965Z,111.97
2019-03-30T01:37:23.749Z,107.57
2019-03-30T01:39:50.525Z,122.67
2019-03-30T01:42:17.168Z,98.03
2019-03-30T01:44:43.880Z,105.50
2019-03-30T01:47:10.561Z,110.70
2019-03-30T01:49:37.305Z,112.80
2019-03-30T01:52:04.033Z,96.90
2019-03-30T01:54:30.834Z,111.87
2019-03-30T01:56:57.573Z,112.00
2019-03-30T01:59:24.273Z,108.47
2019-03-30T02:01:51.080Z,110.50
2019-03-30T02:04:17.802Z,133.70
2019-03-30T02:06:44.525Z,114.20
2019-03-30T02:09:11.293Z,113.57
2019-03-30T02:11:37.987Z,122.27
2019-03-30T02:14:04.683Z,106.77
2019-03-30T02:16:31.566Z,111.40
2019-03-30T02:18:58.264Z,114.57
2019-03-30T02:21:24.986Z,120.50
2019-03-30T02:23:52.222Z,108.30
2019-03-30T02:26:18.943Z,107.30
2019-03-30T02:28:45.647Z,101.13
2019-03-30T02:31:12.487Z,118.57
2019-03-30T02:33:39.229Z,111.63
2019-03-30T02:36:05.936Z,114.50
2019-03-30T02:38:32.735Z,108.90
2019-03-30T02:40:59.422Z,117.60
2019-03-30T02:43:26.157Z,105.67
2019-03-30T02:45:52.902Z,100.80
2019-03-30T02:48:19.547Z,111.13
2019-03-30T02:50:49.866Z,110.20
2019-03-30T02:53:14.665Z,118.53
2019-03-30T02:55:41.361Z,104.13
2019-03-30T02:58:08.089Z,117.23
2019-03-30T03:00:34.853Z,102.87
2019-03-30T03:03:01.484Z,107.17
2019-03-30T03:05:28.222Z,100.17
2019-03-30T03:07:54.976Z,110.13
2019-03-30T03:10:21.676Z,100.43
2019-03-30T03:12:48.432Z,107.10
2019-03-30T03:15:15.362Z,108.13
2019-03-30T03:17:42.018Z,104.77
2019-03-30T03:20:08.742Z,112.60
2019-03-30T03:22:35.527Z,99.27
2019-03-30T03:25:02.247Z,104.83
2019-03-30T03:27:28.976Z,100.23
2019-03-30T03:29:55.780Z,114.27
2019-03-30T03:32:22.484Z,100.40
2019-03-30T03:34:49.225Z,105.53
2019-03-30T03:37:15.996Z,121.27
2019-03-30T03:39:42.766Z,108.67
2019-03-30T03:42:09.503Z,117.33
2019-03-30T03:44:36.841Z,121.03
2019-03-30T03:47:03.556Z,101.17
2019-03-30T03:49:30.250Z,101.83
2019-03-30T03:51:57.031Z,99.63
2019-03-30T03:54:23.752Z,116.90
2019-03-30T03:56:50.440Z,109.50
2019-03-30T03:59:17.258Z,107.03
2019-03-30T04:01:43.943Z,106.60
2019-03-30T04:04:10.670Z,115.57
2019-03-30T04:06:37.459Z,126.63
2019-03-30T04:09:04.198Z,116.00
2019-03-30T04:11:30.896Z,108.77
2019-03-30T04:13:57.661Z,112.00
2019-03-30T04:16:24.390Z,108.30
2019-03-30T04:18:51.128Z,111.97
2019-03-30T04:21:17.901Z,106.97
2019-03-30T04:23:44.544Z,108.80
2019-03-30T04:26:11.229Z,94.70
2019-03-30T04:28:38.108Z,94.47
2019-03-30T04:31:04.807Z,109.23
2019-03-30T04:33:31.508Z,106.50
2019-03-30T04:35:58.298Z,105.40
2019-03-30T04:38:25.021Z,112.70
2019-03-30T04:40:51.740Z,94.67
2019-03-30T04:43:18.546Z,106.97
2019-03-30T04:45:45.230Z,103.10
2019-03-30T04:48:11.956Z,99.60
2019-03-30T04:50:38.750Z,112.47
2019-03-30T04:53:05.462Z,102.23
2019-03-30T04:55:32.192Z,114.80
2019-03-30T04:57:58.953Z,99.27
2019-03-30T05:00:25.658Z,115.80
2019-03-30T05:02:52.390Z,98.27
2019-03-30T05:05:19.189Z,107.23
2019-03-30T05:07:45.877Z,105.87
2019-03-30T05:10:12.520Z,99.93
2019-03-30T05:12:39.320Z,104.00
2019-03-30T05:15:06.018Z,98.10
2019-03-30T05:17:46.317Z,103.87
2019-03-30T05:20:01.196Z,96.93
2019-03-30T05:22:27.913Z,93.87
2019-03-30T05:24:54.633Z,96.27
2019-03-30T05:27:21.446Z,93.67
2019-03-30T05:29:48.121Z,104.97
2019-03-30T05:32:14.781Z,97.30
2019-03-30T05:34:41.541Z,97.93
2019-03-30T05:37:08.237Z,103.63
2019-03-30T05:39:34.975Z,103.20
2019-03-30T05:42:01.880Z,103.40
2019-03-30T05:44:28.613Z,92.70
2019-03-30T05:46:55.340Z,104.47
2019-03-30T05:49:22.066Z,92.13
2019-03-30T05:51:48.837Z,104.27
2019-03-30T05:54:15.671Z,93.30
2019-03-30T05:56:42.513Z,101.73
2019-03-30T05:59:09.259Z,100.47
2019-03-30T06:01:35.976Z,111.87
2019-03-30T06:04:02.721Z,97.67
2019-03-30T06:06:29.360Z,106.93
2019-03-30T06:08:56.056Z,103.07
2019-03-30T06:11:22.795Z,106.47
2019-03-30T06:13:49.476Z,100.70
2019-03-30T06:16:16.177Z,111.37
2019-03-30T06:18:43.145Z,111.97
2019-03-30T06:21:09.838Z,104.70
2019-03-30T06:23:36.579Z,112.50
2019-03-30T06:26:03.333Z,110.40
2019-03-30T06:28:30.063Z,111.27
2019-03-30T06:30:56.808Z,108.57
2019-03-30T06:33:23.595Z,116.70
2019-03-30T06:35:50.278Z,107.47
2019-03-30T06:38:16.979Z,111.10
2019-03-30T06:40:43.777Z,118.80
2019-03-30T06:43:10.482Z,103.30
2019-03-30T06:45:37.214Z,111.37
2019-03-30T06:48:03.970Z,102.77
2019-03-30T06:50:30.683Z,104.00
2019-03-30T06:52:58.851Z,111.73
2019-03-30T06:55:25.791Z,99.40
2019-03-30T06:57:52.527Z,100.50
2019-03-30T07:00:19.326Z,98.27
2019-03-30T07:02:46.118Z,93.20
2019-03-30T07:05:12.857Z,87.57
2019-03-30T07:07:39.688Z,86.47
2019-03-30T07:10:06.541Z,83.90
2019-03-30T07:12:33.484Z,82.77
2019-03-30T07:15:00.392Z,81.60
2019-03-30T07:17:27.149Z,71.17
2019-03-30T07:19:53.777Z,74.10
2019-03-30T07:22:20.528Z,79.13
2019-03-30T07:24:47.320Z,77.63
2019-03-30T07:27:14.021Z,76.27
2019-03-30T07:29:40.728Z,77.70
2019-03-30T07:32:07.748Z,71.73
2019-03-30T07:34:34.485Z,70.97
2019-03-30T07:37:01.217Z,68.77
2019-03-30T07:39:28.015Z,67.70
2019-03-30T07:41:54.657Z,60.30
2019-03-30T07:44:21.339Z,67.13
2019-03-30T07:46:48.158Z,66.67
2019-03-30T07:49:14.851Z,64.30
2019-03-30T07:51:41.559Z,65.07
2019-03-30T07:54:08.323Z,63.57
2019-03-30T07:56:35.025Z,64.87
2019-03-30T07:59:01.770Z,70.47
2019-03-30T08:01:28.556Z,65.53
2019-03-30T08:03:55.253Z,63.43
2019-03-30T08:06:22.008Z,70.20
2019-03-30T08:08:48.809Z,62.57
2019-03-30T08:11:15.549Z,62.23
2019-03-30T08:13:42.335Z,63.23
2019-03-30T08:16:09.145Z,60.33
2019-03-30T08:18:35.814Z,54.07
2019-03-30T08:21:02.522Z,54.70
2019-03-30T08:23:39.793Z,62.30
2019-03-30T08:25:57.657Z,59.60
2019-03-30T08:28:24.393Z,59.67
2019-03-30T08:30:51.178Z,56.23
2019-03-30T08:33:17.930Z,60.97
2019-03-30T08:35:44.690Z,53.57
2019-03-30T08:38:11.452Z,55.23
2019-03-30T08:40:38.191Z,47.53
2019-03-30T08:43:04.894Z,57.40
2019-03-30T08:45:31.670Z,57.90
2019-03-30T08:47:58.421Z,52.78
2019-03-30T08:50:25.171Z,57.45
2019-03-30T08:52:51.944Z,57.40
2019-03-30T08:55:18.689Z,54.18
2019-03-30T08:57:45.373Z,54.15
2019-03-30T09:00:12.091Z,50.92
2019-03-30T09:02:38.809Z,45.80
2019-03-30T09:05:05.517Z,48.48
2019-03-30T09:07:32.310Z,44.98
2019-03-30T09:09:59.028Z,48.65
2019-03-30T09:12:25.756Z,46.33
2019-03-30T09:14:52.517Z,45.55
2019-03-30T09:17:19.218Z,45.88
2019-03-30T09:19:45.872Z,49.55
2019-03-30T09:22:12.966Z,44.70
2019-03-30T09:24:39.711Z,39.63
2019-03-30T09:27:06.444Z,43.33
2019-03-30T09:29:33.191Z,43.02
2019-03-30T09:32:13.209Z,47.73
2019-03-30T09:34:28.169Z,40.63
2019-03-30T09:36:55.077Z,46.30
2019-03-30T09:39:21.745Z,49.05
2019-03-30T09:41:48.466Z,46.05
2019-03-30T09:44:15.254Z,42.62
2019-03-30T09:46:41.999Z,41.88
2019-03-30T09:49:08.702Z,42.95
2019-03-30T09:51:35.497Z,46.15
2019-03-30T09:54:02.196Z,48.10
2019-03-30T09:56:28.927Z,45.23
2019-03-30T09:58:55.674Z,49.53
2019-03-30T10:01:22.379Z,43.38
2019-03-30T10:03:49.075Z,47.38
2019-03-30T10:06:15.875Z,38.90
2019-03-30T10:08:42.609Z,42.90
2019-03-30T10:11:09.338Z,47.25
2019-03-30T10:13:36.107Z,43.35
2019-03-30T10:16:02.817Z,40.55
2019-03-30T10:18:29.540Z,41.35
2019-03-30T10:20:56.334Z,41.53
2019-03-30T10:23:23.061Z,39.65
2019-03-30T10:25:49.795Z,39.65
2019-03-30T10:28:16.552Z,38.13
2019-03-30T10:30:43.276Z,37.10
2019-03-30T10:33:09.974Z,35.25
2019-03-30T10:35:36.656Z,34.88
2019-03-30T10:38:03.387Z,38.38
2019-03-30T10:40:30.094Z,35.75
2019-03-30T10:42:56.865Z,35.35
2019-03-30T10:45:23.492Z,35.03
2019-03-30T10:47:50.195Z,40.45
2019-03-30T10:50:16.877Z,35.20
2019-03-30T10:52:43.498Z,33.28
2019-03-30T10:55:10.230Z,33.53
2019-03-30T10:57:36.978Z,32.55
2019-03-30T11:00:03.602Z,34.40
2019-03-30T11:02:30.339Z,33.83
2019-03-30T11:04:57.431Z,33.70
2019-03-30T11:07:24.152Z,32.93
2019-03-30T11:09:50.876Z,31.17
2019-03-30T11:12:17.645Z,35.88
2019-03-30T11:14:44.341Z,30.35
2019-03-30T11:17:11.081Z,31.12
2019-03-30T11:19:37.854Z,28.42
2019-03-30T11:22:04.509Z,32.00
2019-03-30T11:24:31.218Z,30.08
2019-03-30T11:26:57.990Z,27.67
2019-03-30T11:29:24.615Z,29.23
2019-03-30T22:51:42.192Z,117.13
2019-03-30T22:54:09.002Z,113.33
2019-03-30T22:56:35.726Z,115.23
2019-03-30T22:59:02.447Z,111.30
2019-03-30T23:01:29.217Z,114.43
2019-03-30T23:03:55.986Z,111.73
2019-03-30T23:06:23.113Z,112.53
2019-03-30T23:08:49.832Z,124.33
2019-03-30T23:11:16.687Z,124.63
2019-03-30T23:13:43.487Z,112.97
2019-03-30T23:16:10.276Z,128.77
2019-03-30T23:18:36.996Z,118.57
2019-03-30T23:21:03.836Z,126.67
2019-03-30T23:23:30.587Z,140.93
2019-03-30T23:25:57.330Z,143.40
2019-03-30T23:28:24.220Z,161.07
2019-03-30T23:30:54.398Z,157.07
2019-03-30T23:33:19.352Z,147.83
2019-03-30T23:35:46.070Z,131.73
2019-03-30T23:38:14.136Z,143.93
2019-03-30T23:40:41.060Z,142.93
2019-03-30T23:43:07.834Z,151.77
2019-03-30T23:45:34.822Z,149.20
2019-03-30T23:48:01.483Z,132.70
2019-03-30T23:50:30.251Z,146.87
2019-03-30T23:52:56.965Z,139.20
2019-03-30T23:55:24.055Z,134.03
2019-03-30T23:57:50.735Z,138.00
